Time;durP1;ratioP1;P1;durP2;ratioP2;P2;SDS_P1;SDS_P2;PMS_P1;PMS_P2;Temp;Humidity;BMP_temperature;BMP_pressure;BME280_temperature;BME280_humidity;BME280_pressure;Samples;Min_cycle;Max_cycle;Signal;HPM_P1;HPM_P2
2023/12/01 00:02:01;;;;;;;15.52;7.72;;;;;;;;;;4981002;28;20022;-69
2023/12/01 00:04:47;;;;;;;12.73;6.40;;;;;;;;;;5004099;28;20491;-69
2023/12/01 00:07:32;;;;;;;14.38;7.57;;;;;;;;;;5014764;28;20470;-69
2023/12/01 00:10:18;;;;;;;12.70;6.88;;;;;;;;;;5013796;28;20025;-67
2023/12/01 00:13:04;;;;;;;11.65;6.95;;;;;;;;;;5012568;28;20069;-67
2023/12/01 00:15:49;;;;;;;10.40;5.10;;;;;;;;;;5013263;28;20026;-67
2023/12/01 00:18:35;;;;;;;12.52;6.85;;;;;;;;;;5012325;28;20021;-67
2023/12/01 00:21:21;;;;;;;19.60;7.85;;;;;;;;;;5013712;28;20024;-67
2023/12/01 00:24:07;;;;;;;11.32;6.57;;;;;;;;;;5013419;28;20065;-67
2023/12/01 00:26:53;;;;;;;10.55;6.50;;;;;;;;;;5012693;28;20041;-67
2023/12/01 00:29:39;;;;;;;10.50;7.47;;;;;;;;;;5013598;28;20022;-67
2023/12/01 00:32:24;;;;;;;10.80;6.53;;;;;;;;;;5002308;28;20037;-67
2023/12/01 00:35:10;;;;;;;10.55;7.10;;;;;;;;;;4993345;28;20081;-67
2023/12/01 00:37:56;;;;;;;11.68;5.55;;;;;;;;;;5002544;28;20025;-67
2023/12/01 00:40:41;;;;;;;11.95;6.63;;;;;;;;;;5013576;28;20553;-67
2023/12/01 00:43:27;;;;;;;11.70;6.40;;;;;;;;;;5009634;28;20496;-67
2023/12/01 00:46:13;;;;;;;18.27;7.00;;;;;;;;;;4994497;28;20022;-66
2023/12/01 00:48:58;;;;;;;10.90;5.28;;;;;;;;;;5012686;28;20535;-67
2023/12/01 00:51:45;;;;;;;10.38;6.03;;;;;;;;;;5012131;28;20064;-66
2023/12/01 00:54:31;;;;;;;13.32;5.75;;;;;;;;;;5013317;28;20034;-67
2023/12/01 00:57:17;;;;;;;10.98;6.57;;;;;;;;;;5012481;28;20391;-67
2023/12/01 01:00:04;;;;;;;12.35;5.68;;;;;;;;;;5013775;28;20499;-67
2023/12/01 01:02:50;;;;;;;7.63;6.20;;;;;;;;;;5013935;28;20025;-66
2023/12/01 01:05:35;;;;;;;12.32;6.10;;;;;;;;;;5012103;28;20505;-67
2023/12/01 01:08:21;;;;;;;14.23;5.70;;;;;;;;;;5013233;28;20041;-67
2023/12/01 01:11:07;;;;;;;9.20;5.95;;;;;;;;;;5014145;28;20033;-67
2023/12/01 01:13:53;;;;;;;8.05;5.07;;;;;;;;;;5013493;28;20022;-66
2023/12/01 01:16:38;;;;;;;15.93;7.13;;;;;;;;;;5011619;28;20068;-67
2023/12/01 01:19:24;;;;;;;8.32;5.22;;;;;;;;;;5013290;28;20026;-67
2023/12/01 01:22:09;;;;;;;7.50;4.45;;;;;;;;;;5006898;28;20091;-66
2023/12/01 01:24:56;;;;;;;7.47;5.43;;;;;;;;;;5013089;28;20025;-66
2023/12/01 01:27:42;;;;;;;7.20;4.70;;;;;;;;;;5013393;28;20026;-66
2023/12/01 01:30:28;;;;;;;9.15;5.05;;;;;;;;;;5013790;28;20026;-67
2023/12/01 01:33:13;;;;;;;6.40;4.28;;;;;;;;;;5013099;28;20033;-66
2023/12/01 01:35:59;;;;;;;20.27;11.32;;;;;;;;;;5013150;28;20494;-67
2023/12/01 01:38:44;;;;;;;18.58;8.90;;;;;;;;;;5013862;28;20067;-66
2023/12/01 01:41:30;;;;;;;13.85;7.50;;;;;;;;;;4999177;28;20023;-67
2023/12/01 01:44:16;;;;;;;12.43;7.00;;;;;;;;;;4993187;28;20022;-66
2023/12/01 01:47:02;;;;;;;11.55;6.38;;;;;;;;;;5003396;28;20030;-66
2023/12/01 01:49:47;;;;;;;16.27;8.13;;;;;;;;;;4997187;28;20022;-67
2023/12/01 01:52:35;;;;;;;10.05;6.10;;;;;;;;;;5009729;28;20380;-66
2023/12/01 01:55:21;;;;;;;6.20;4.53;;;;;;;;;;4989482;28;20057;-66
2023/12/01 01:58:07;;;;;;;9.02;5.55;;;;;;;;;;4993629;28;20400;-66
2023/12/01 02:00:53;;;;;;;10.88;4.93;;;;;;;;;;4979832;28;20022;-66
2023/12/01 02:03:40;;;;;;;9.82;4.65;;;;;;;;;;5009288;28;20376;-66
2023/12/01 02:06:30;;;;;;;6.40;4.80;;;;;;;;;;5011171;28;20484;-66
2023/12/01 02:09:16;;;;;;;8.48;5.32;;;;;;;;;;5011708;28;20065;-66
2023/12/01 02:12:02;;;;;;;10.63;6.38;;;;;;;;;;5013910;28;20503;-66
2023/12/01 02:14:47;;;;;;;11.90;5.07;;;;;;;;;;5005525;28;20026;-66
2023/12/01 02:17:33;;;;;;;9.93;5.68;;;;;;;;;;5007334;28;20431;-66
2023/12/01 02:20:19;;;;;;;10.60;3.65;;;;;;;;;;5012169;28;20021;-66
2023/12/01 02:23:04;;;;;;;7.72;5.50;;;;;;;;;;5009893;28;20058;-67
2023/12/01 02:25:50;;;;;;;6.22;4.30;;;;;;;;;;5011511;28;20499;-67
2023/12/01 02:28:36;;;;;;;7.38;5.10;;;;;;;;;;5010151;28;20026;-67
2023/12/01 02:31:21;;;;;;;9.75;5.13;;;;;;;;;;5013282;28;20060;-67
2023/12/01 02:34:07;;;;;;;7.30;4.22;;;;;;;;;;5012607;28;20026;-66
2023/12/01 02:36:53;;;;;;;8.05;5.45;;;;;;;;;;5012353;28;20479;-66
2023/12/01 02:39:39;;;;;;;8.20;3.60;;;;;;;;;;4988920;28;20068;-67
2023/12/01 02:42:24;;;;;;;10.90;4.93;;;;;;;;;;4993177;28;20023;-67
2023/12/01 02:45:10;;;;;;;9.40;4.32;;;;;;;;;;5000784;28;20022;-67
2023/12/01 02:51:37;;;;;;;7.18;4.53;;;;;;;;;;5004371;28;20458;-66
2023/12/01 02:54:23;;;;;;;5.70;3.25;;;;;;;;;;5011576;28;20194;-66
2023/12/01 02:57:10;;;;;;;6.45;3.50;;;;;;;;;;5012267;28;20033;-66
2023/12/01 02:59:55;;;;;;;10.38;5.68;;;;;;;;;;5017047;28;20029;-67
2023/12/01 03:02:44;;;;;;;7.72;4.38;;;;;;;;;;5015355;28;20160;-66
2023/12/01 03:05:30;;;;;;;3.22;3.00;;;;;;;;;;5014243;28;20038;-67
2023/12/01 03:08:15;;;;;;;6.60;4.28;;;;;;;;;;5015895;28;20376;-66
2023/12/01 03:11:01;;;;;;;8.45;4.35;;;;;;;;;;5007356;28;20479;-66
2023/12/01 03:13:47;;;;;;;6.97;4.03;;;;;;;;;;4995444;28;20018;-66
2023/12/01 03:16:33;;;;;;;7.95;4.35;;;;;;;;;;5013596;28;20025;-67
2023/12/01 03:19:18;;;;;;;7.72;4.20;;;;;;;;;;5014428;28;20495;-66
2023/12/01 03:22:04;;;;;;;7.07;4.40;;;;;;;;;;5015014;28;20050;-67
2023/12/01 03:24:50;;;;;;;11.68;5.30;;;;;;;;;;5014694;28;20028;-66
2023/12/01 03:27:39;;;;;;;8.88;4.30;;;;;;;;;;5015758;28;20104;-66
2023/12/01 03:30:25;;;;;;;9.55;4.25;;;;;;;;;;5014648;28;20083;-66
2023/12/01 03:33:12;;;;;;;6.28;3.65;;;;;;;;;;5015462;28;20034;-66
2023/12/01 03:35:57;;;;;;;9.52;5.28;;;;;;;;;;5016125;28;20026;-67
2023/12/01 03:38:43;;;;;;;5.85;3.83;;;;;;;;;;5015692;28;20038;-67
2023/12/01 03:41:29;;;;;;;5.07;4.63;;;;;;;;;;5015929;28;20112;-67
2023/12/01 03:44:15;;;;;;;9.98;5.53;;;;;;;;;;5015162;28;20545;-66
2023/12/01 03:47:01;;;;;;;7.00;4.93;;;;;;;;;;5015584;28;20483;-67
2023/12/01 03:49:46;;;;;;;17.00;5.10;;;;;;;;;;5015498;28;20034;-66
2023/12/01 03:52:32;;;;;;;10.10;5.30;;;;;;;;;;5014920;28;20084;-66
2023/12/01 03:55:18;;;;;;;11.32;4.68;;;;;;;;;;5015167;28;20037;-66
2023/12/01 03:58:03;;;;;;;7.78;3.85;;;;;;;;;;5014911;28;20029;-67
2023/12/01 04:00:51;;;;;;;7.13;3.92;;;;;;;;;;5014971;28;20018;-67
2023/12/01 04:03:37;;;;;;;5.60;4.18;;;;;;;;;;5015371;28;20018;-66
2023/12/01 04:06:23;;;;;;;7.43;4.13;;;;;;;;;;5013613;28;20380;-66
2023/12/01 04:09:09;;;;;;;9.00;5.15;;;;;;;;;;5015188;28;20065;-66
2023/12/01 04:11:55;;;;;;;8.32;4.40;;;;;;;;;;5015380;28;20030;-66
2023/12/01 04:14:40;;;;;;;6.63;3.58;;;;;;;;;;5014982;28;20145;-66
2023/12/01 04:17:26;;;;;;;7.70;4.63;;;;;;;;;;5014669;28;20057;-66
2023/12/01 04:20:25;;;;;;;11.57;4.72;;;;;;;;;;5014545;28;20104;-67
2023/12/01 04:23:11;;;;;;;9.98;3.40;;;;;;;;;;5013425;28;20026;-67
2023/12/01 04:25:57;;;;;;;8.90;4.68;;;;;;;;;;5014848;28;20025;-67
2023/12/01 04:28:42;;;;;;;6.75;4.45;;;;;;;;;;5014371;28;20018;-66
2023/12/01 04:31:28;;;;;;;6.10;4.28;;;;;;;;;;5014196;28;20463;-67
2023/12/01 04:34:13;;;;;;;7.18;4.63;;;;;;;;;;5014907;28;20064;-67
2023/12/01 04:36:59;;;;;;;6.18;4.00;;;;;;;;;;5014882;28;20030;-66
2023/12/01 04:39:45;;;;;;;7.53;5.68;;;;;;;;;;5014502;28;20100;-66
2023/12/01 04:42:30;;;;;;;7.88;5.10;;;;;;;;;;5014474;28;20029;-66
2023/12/01 04:45:20;;;;;;;8.35;3.95;;;;;;;;;;5013723;28;20057;-67
2023/12/01 04:48:09;;;;;;;5.05;3.13;;;;;;;;;;5014877;28;20045;-67
2023/12/01 04:50:54;;;;;;;9.98;4.20;;;;;;;;;;5014301;28;20038;-67
2023/12/01 04:53:40;;;;;;;12.75;5.68;;;;;;;;;;5014290;28;20049;-67
2023/12/01 04:56:25;;;;;;;6.50;4.05;;;;;;;;;;5013877;28;20021;-66
2023/12/01 04:59:11;;;;;;;8.25;5.15;;;;;;;;;;5014002;28;20108;-66
2023/12/01 05:01:57;;;;;;;9.65;5.20;;;;;;;;;;5013804;28;20018;-67
2023/12/01 05:04:42;;;;;;;7.28;4.60;;;;;;;;;;4999901;28;20163;-66
2023/12/01 05:07:31;;;;;;;6.07;4.05;;;;;;;;;;5013873;28;20022;-67
2023/12/01 05:10:22;;;;;;;5.30;4.55;;;;;;;;;;5012567;28;20026;-66
2023/12/01 05:13:07;;;;;;;11.18;4.97;;;;;;;;;;4999642;28;20149;-67
2023/12/01 05:15:53;;;;;;;8.82;4.22;;;;;;;;;;5014029;28;20559;-67
2023/12/01 05:18:38;;;;;;;29.00;12.45;;;;;;;;;;5014180;28;20025;-67
2023/12/01 05:21:24;;;;;;;46.47;15.93;;;;;;;;;;5014623;28;20033;-67
2023/12/01 05:24:11;;;;;;;36.22;15.75;;;;;;;;;;5014506;28;20029;-67
2023/12/01 05:26:58;;;;;;;29.52;12.07;;;;;;;;;;5013482;28;20489;-67
2023/12/01 05:29:43;;;;;;;40.75;18.25;;;;;;;;;;5013574;28;20057;-67
2023/12/01 05:32:29;;;;;;;21.48;8.82;;;;;;;;;;5013185;28;20018;-67
2023/12/01 05:35:15;;;;;;;25.65;8.55;;;;;;;;;;5013765;28;20022;-67
2023/12/01 05:38:04;;;;;;;10.52;6.80;;;;;;;;;;5012695;28;20056;-67
2023/12/01 05:40:49;;;;;;;10.52;7.88;;;;;;;;;;5013154;28;20026;-67
2023/12/01 05:43:35;;;;;;;14.55;8.52;;;;;;;;;;5013299;28;20029;-67
2023/12/01 05:46:20;;;;;;;14.20;8.40;;;;;;;;;;5013078;28;20018;-67
2023/12/01 05:49:07;;;;;;;21.45;7.85;;;;;;;;;;5013357;28;20026;-67
2023/12/01 05:51:52;;;;;;;13.80;7.13;;;;;;;;;;5013268;28;20084;-67
2023/12/01 05:54:38;;;;;;;16.48;5.97;;;;;;;;;;5013317;28;20030;-67
2023/12/01 05:57:23;;;;;;;13.02;6.20;;;;;;;;;;5013630;28;20037;-67
2023/12/01 06:00:17;;;;;;;9.20;5.72;;;;;;;;;;5013559;28;20026;-67
2023/12/01 06:03:08;;;;;;;10.93;5.70;;;;;;;;;;5013663;28;20058;-67
2023/12/01 06:05:54;;;;;;;8.13;4.97;;;;;;;;;;5013006;28;20091;-67
2023/12/01 06:08:39;;;;;;;11.85;5.13;;;;;;;;;;5012696;28;20086;-67
2023/12/01 06:11:25;;;;;;;12.43;5.45;;;;;;;;;;5013467;28;20509;-67
2023/12/01 06:14:11;;;;;;;13.02;5.45;;;;;;;;;;5013277;28;20406;-67
2023/12/01 06:16:57;;;;;;;12.05;5.70;;;;;;;;;;5012279;28;20484;-67
2023/12/01 06:19:42;;;;;;;16.48;5.78;;;;;;;;;;5013396;28;20548;-67
2023/12/01 06:22:28;;;;;;;13.60;5.32;;;;;;;;;;5013144;28;20565;-67
2023/12/01 06:25:18;;;;;;;11.73;5.13;;;;;;;;;;5013139;28;20041;-67
2023/12/01 06:28:05;;;;;;;11.88;6.88;;;;;;;;;;5013309;28;20495;-67
2023/12/01 06:30:50;;;;;;;15.63;7.18;;;;;;;;;;5013597;28;20029;-67
2023/12/01 06:33:36;;;;;;;12.38;6.43;;;;;;;;;;5012943;28;20403;-67
2023/12/01 06:36:22;;;;;;;11.60;6.45;;;;;;;;;;5017205;28;20030;-67
2023/12/01 06:39:10;;;;;;;9.55;6.15;;;;;;;;;;5017346;28;20018;-67
2023/12/01 06:41:55;;;;;;;9.85;6.18;;;;;;;;;;5016825;28;20021;-67
2023/12/01 06:44:41;;;;;;;9.77;6.90;;;;;;;;;;5002133;28;20061;-67
2023/12/01 06:47:27;;;;;;;13.18;4.97;;;;;;;;;;5017519;28;20083;-67
2023/12/01 06:50:16;;;;;;;12.70;6.10;;;;;;;;;;5017762;28;20053;-67
2023/12/01 06:53:02;;;;;;;12.75;6.90;;;;;;;;;;5016960;28;20081;-67
2023/12/01 06:55:48;;;;;;;10.38;5.72;;;;;;;;;;5016716;28;20096;-67
2023/12/01 06:58:34;;;;;;;11.65;5.72;;;;;;;;;;5016105;28;20443;-67
2023/12/01 07:01:20;;;;;;;11.00;6.45;;;;;;;;;;5017239;28;20040;-67
2023/12/01 07:04:07;;;;;;;13.10;5.47;;;;;;;;;;5015829;28;20398;-67
2023/12/01 07:06:53;;;;;;;13.75;6.55;;;;;;;;;;5015400;28;20067;-67
2023/12/01 07:09:43;;;;;;;10.77;6.13;;;;;;;;;;5016084;28;20084;-67
2023/12/01 07:12:28;;;;;;;8.57;5.65;;;;;;;;;;5016430;28;20026;-67
2023/12/01 07:15:20;;;;;;;8.07;4.65;;;;;;;;;;5015889;28;20117;-67
2023/12/01 07:18:06;;;;;;;10.35;4.63;;;;;;;;;;5014185;28;20083;-67
2023/12/01 07:20:52;;;;;;;11.13;5.60;;;;;;;;;;5015918;28;20076;-67
2023/12/01 07:23:40;;;;;;;11.30;7.22;;;;;;;;;;5016390;28;20022;-67
2023/12/01 07:26:27;;;;;;;12.60;5.97;;;;;;;;;;5014937;28;20025;-67
2023/12/01 07:29:12;;;;;;;14.80;7.63;;;;;;;;;;5016639;28;20026;-67
2023/12/01 07:31:59;;;;;;;15.13;6.70;;;;;;;;;;5015799;28;20022;-67
2023/12/01 07:34:45;;;;;;;16.48;6.93;;;;;;;;;;5014711;28;20076;-67
2023/12/01 07:37:30;;;;;;;12.63;5.63;;;;;;;;;;5015803;28;20029;-67
2023/12/01 07:40:19;;;;;;;10.05;6.75;;;;;;;;;;5015770;28;20026;-67
2023/12/01 07:43:05;;;;;;;13.27;5.40;;;;;;;;;;5015173;28;20033;-67
2023/12/01 07:45:50;;;;;;;9.05;5.13;;;;;;;;;;5014350;28;20025;-67
2023/12/01 07:48:36;;;;;;;11.13;6.30;;;;;;;;;;5015594;28;20030;-67
2023/12/01 07:51:22;;;;;;;13.13;6.63;;;;;;;;;;5015611;28;20084;-67
2023/12/01 07:54:07;;;;;;;15.02;6.10;;;;;;;;;;5014750;28;20030;-67
2023/12/01 07:56:53;;;;;;;10.27;6.00;;;;;;;;;;5011751;28;20117;-67
2023/12/01 07:59:38;;;;;;;12.98;7.10;;;;;;;;;;5006589;28;20021;-67
2023/12/01 08:02:24;;;;;;;12.82;6.28;;;;;;;;;;5009820;28;20419;-67
2023/12/01 08:05:13;;;;;;;9.80;4.93;;;;;;;;;;5014321;28;20034;-67
2023/12/01 08:07:59;;;;;;;7.75;4.97;;;;;;;;;;4992219;28;20076;-67
2023/12/01 08:10:45;;;;;;;8.88;5.20;;;;;;;;;;5014852;28;20022;-67
2023/12/01 08:13:30;;;;;;;11.00;6.30;;;;;;;;;;5000118;28;20022;-67
2023/12/01 08:16:16;;;;;;;10.18;5.53;;;;;;;;;;5015082;28;20026;-67
2023/12/01 08:19:02;;;;;;;16.38;8.15;;;;;;;;;;5014326;28;20021;-67
2023/12/01 08:21:49;;;;;;;14.18;9.30;;;;;;;;;;5014610;28;20025;-67
2023/12/01 08:24:34;;;;;;;19.23;10.63;;;;;;;;;;5014026;28;20403;-67
2023/12/01 08:27:20;;;;;;;15.45;10.32;;;;;;;;;;5013467;28;20030;-67
2023/12/01 08:30:07;;;;;;;15.32;9.43;;;;;;;;;;5014572;28;20030;-67
2023/12/01 08:32:53;;;;;;;15.77;8.57;;;;;;;;;;5014576;28;20022;-67
2023/12/01 08:35:39;;;;;;;21.13;9.43;;;;;;;;;;5014482;28;20399;-67
2023/12/01 08:38:25;;;;;;;19.17;10.95;;;;;;;;;;5014524;28;20026;-67
2023/12/01 08:41:10;;;;;;;28.27;14.18;;;;;;;;;;5013400;28;20022;-67
2023/12/01 08:43:56;;;;;;;24.98;14.55;;;;;;;;;;5013375;28;20022;-67
2023/12/01 08:46:42;;;;;;;23.75;13.73;;;;;;;;;;5014029;28;20025;-67
2023/12/01 08:49:27;;;;;;;30.92;16.65;;;;;;;;;;5015444;28;20030;-67
2023/12/01 08:52:13;;;;;;;25.65;15.20;;;;;;;;;;5014539;28;20025;-67
2023/12/01 08:55:00;;;;;;;18.10;9.05;;;;;;;;;;5013376;28;20050;-67
2023/12/01 08:57:45;;;;;;;15.35;6.68;;;;;;;;;;5013542;28;20022;-67
2023/12/01 09:00:31;;;;;;;10.77;5.55;;;;;;;;;;5013684;28;20046;-67
2023/12/01 09:03:17;;;;;;;9.60;6.22;;;;;;;;;;5007034;28;20029;-67
2023/12/01 09:06:03;;;;;;;18.63;8.98;;;;;;;;;;4994574;28;20042;-67
2023/12/01 09:08:49;;;;;;;12.25;7.40;;;;;;;;;;4980114;28;20029;-67
2023/12/01 09:11:34;;;;;;;13.15;7.43;;;;;;;;;;4994144;28;20511;-67
2023/12/01 09:14:20;;;;;;;15.20;5.97;;;;;;;;;;5002977;28;20049;-67
2023/12/01 09:17:06;;;;;;;11.02;5.53;;;;;;;;;;5013417;28;20024;-67
2023/12/01 09:19:51;;;;;;;14.45;4.82;;;;;;;;;;4999682;28;20113;-67
2023/12/01 09:22:37;;;;;;;12.35;5.63;;;;;;;;;;5013256;28;20582;-67
2023/12/01 09:25:23;;;;;;;10.52;4.88;;;;;;;;;;5012184;28;20036;-67
2023/12/01 09:28:08;;;;;;;15.63;7.07;;;;;;;;;;5007834;28;20170;-67
2023/12/01 09:30:54;;;;;;;13.10;6.93;;;;;;;;;;4998716;28;20411;-67
2023/12/01 09:33:39;;;;;;;12.23;7.88;;;;;;;;;;5012493;28;20109;-67
2023/12/01 09:36:26;;;;;;;16.50;7.22;;;;;;;;;;5012989;28;20030;-67
2023/12/01 09:39:12;;;;;;;9.27;5.10;;;;;;;;;;5012029;28;20607;-67
2023/12/01 09:42:05;;;;;;;13.68;6.18;;;;;;;;;;5013627;28;20026;-68
2023/12/01 09:44:53;;;;;;;15.38;5.72;;;;;;;;;;5000906;28;20037;-66
2023/12/01 09:47:45;;;;;;;18.08;5.47;;;;;;;;;;4977865;28;20038;-66
2023/12/01 09:50:31;;;;;;;13.65;5.78;;;;;;;;;;4981388;28;20056;-66
2023/12/01 09:53:17;;;;;;;9.02;5.68;;;;;;;;;;5013172;28;20045;-66
2023/12/01 09:56:05;;;;;;;7.68;4.82;;;;;;;;;;5011740;28;20519;-67
2023/12/01 09:58:51;;;;;;;12.10;5.03;;;;;;;;;;4998533;28;20040;-67
2023/12/01 10:01:38;;;;;;;9.88;5.40;;;;;;;;;;5012154;28;20030;-67
2023/12/01 10:04:23;;;;;;;12.82;5.18;;;;;;;;;;4986419;28;20513;-67
2023/12/01 10:07:09;;;;;;;9.13;4.97;;;;;;;;;;4999744;28;20042;-67
2023/12/01 10:09:54;;;;;;;8.10;4.25;;;;;;;;;;5002568;28;20027;-68
2023/12/01 10:12:55;;;;;;;10.65;5.05;;;;;;;;;;4990048;28;20014;-68
2023/12/01 10:15:41;;;;;;;11.07;4.30;;;;;;;;;;5016719;28;20034;-67
2023/12/01 10:18:26;;;;;;;7.50;4.20;;;;;;;;;;5016228;28;20105;-67
2023/12/01 10:21:12;;;;;;;17.88;5.55;;;;;;;;;;5016406;28;20032;-67
2023/12/01 10:23:58;;;;;;;9.98;4.38;;;;;;;;;;5016735;28;20072;-67
2023/12/01 10:26:44;;;;;;;13.70;5.90;;;;;;;;;;5016485;28;20045;-67
2023/12/01 10:29:31;;;;;;;8.10;4.80;;;;;;;;;;5014917;28;20062;-67
2023/12/01 10:32:17;;;;;;;9.40;5.28;;;;;;;;;;5014031;28;20053;-68
2023/12/01 10:35:05;;;;;;;8.32;3.75;;;;;;;;;;5015156;28;20506;-67
2023/12/01 10:37:50;;;;;;;9.32;4.35;;;;;;;;;;5016196;28;20041;-67
2023/12/01 10:40:37;;;;;;;6.57;4.38;;;;;;;;;;5016625;28;20446;-67
2023/12/01 10:43:22;;;;;;;11.18;4.85;;;;;;;;;;5015708;28;20449;-67
2023/12/01 10:46:11;;;;;;;14.95;4.95;;;;;;;;;;5017172;28;20022;-67
2023/12/01 10:48:57;;;;;;;7.10;4.85;;;;;;;;;;5016143;28;20036;-67
2023/12/01 10:51:42;;;;;;;9.65;4.35;;;;;;;;;;5016086;28;20495;-67
2023/12/01 10:54:28;;;;;;;6.50;4.30;;;;;;;;;;5011712;28;20040;-67
2023/12/01 10:57:38;;;;;;;10.40;6.53;;;;;;;;;;4989380;28;20492;-67
2023/12/01 11:00:29;;;;;;;;;;;;;;;;;;4982685;28;20463;-67
2023/12/01 11:03:18;;;;;;;9.43;5.47;;;;;;;;;;5004696;28;19909;-67
2023/12/01 11:06:07;;;;;;;13.05;4.97;;;;;;;;;;5015409;28;20117;-67
2023/12/01 11:08:58;;;;;;;10.90;5.25;;;;;;;;;;5005765;28;20026;-67
2023/12/01 11:11:59;;;;;;;9.68;4.53;;;;;;;;;;4996000;28;20027;-67
2023/12/01 11:14:45;;;;;;;11.00;4.65;;;;;;;;;;4981787;28;20622;-67
2023/12/01 11:17:31;;;;;;;10.02;4.25;;;;;;;;;;4981348;28;20030;-67
2023/12/01 11:20:43;;;;;;;8.20;4.57;;;;;;;;;;4986346;28;20480;-70
2023/12/01 11:23:32;;;;;;;7.85;3.95;;;;;;;;;;5004715;28;20451;-67
2023/12/01 11:26:18;;;;;;;7.32;4.70;;;;;;;;;;5012638;28;20109;-68
2023/12/01 11:29:09;;;;;;;11.75;5.25;;;;;;;;;;5005480;28;20503;-68
2023/12/01 11:31:57;;;;;;;6.90;4.32;;;;;;;;;;5013282;28;20080;-68
2023/12/01 11:35:03;;;;;;;13.27;4.80;;;;;;;;;;5005200;28;20017;-68
2023/12/01 11:37:59;;;;;;;12.75;5.18;;;;;;;;;;5005956;28;20080;-68
2023/12/01 11:40:45;;;;;;;6.97;4.35;;;;;;;;;;5009233;28;20077;-68
2023/12/01 11:43:31;;;;;;;12.07;5.60;;;;;;;;;;5006222;28;20018;-67
2023/12/01 11:46:16;;;;;;;9.95;4.95;;;;;;;;;;4990644;28;20084;-67
2023/12/01 11:49:02;;;;;;;10.55;4.70;;;;;;;;;;5004167;28;20045;-68
2023/12/01 11:51:49;;;;;;;7.90;4.32;;;;;;;;;;5009495;28;20026;-68
2023/12/01 11:54:36;;;;;;;9.70;5.25;;;;;;;;;;5003249;28;20091;-67
2023/12/01 11:57:21;;;;;;;7.90;4.22;;;;;;;;;;4993946;28;20395;-67
2023/12/01 12:00:09;;;;;;;9.75;4.47;;;;;;;;;;5008524;28;20400;-67
2023/12/01 12:02:55;;;;;;;9.27;4.40;;;;;;;;;;5002131;28;20022;-67
2023/12/01 12:05:40;;;;;;;7.25;4.40;;;;;;;;;;5014355;28;20029;-67
2023/12/01 12:08:27;;;;;;;10.25;4.53;;;;;;;;;;5002344;28;20495;-67
2023/12/01 12:11:13;;;;;;;9.57;4.13;;;;;;;;;;4985921;28;20475;-67
2023/12/01 12:14:01;;;;;;;6.68;4.97;;;;;;;;;;4998376;28;20395;-67
2023/12/01 12:16:47;;;;;;;9.48;5.25;;;;;;;;;;5013622;28;20026;-68
2023/12/01 12:19:43;;;;;;;9.88;4.25;;;;;;;;;;5014226;28;20487;-67
2023/12/01 12:22:28;;;;;;;10.18;5.03;;;;;;;;;;5004407;28;20109;-67
2023/12/01 12:25:14;;;;;;;9.75;4.63;;;;;;;;;;5014289;28;20026;-67
2023/12/01 12:28:08;;;;;;;10.77;4.68;;;;;;;;;;5014328;28;20101;-67
2023/12/01 12:30:54;;;;;;;8.02;5.50;;;;;;;;;;5014542;28;20514;-67
2023/12/01 12:33:40;;;;;;;10.30;5.07;;;;;;;;;;5014882;28;20109;-67
2023/12/01 12:36:27;;;;;;;7.72;4.35;;;;;;;;;;5013161;28;20021;-67
2023/12/01 12:39:16;;;;;;;12.68;5.35;;;;;;;;;;5013519;28;20377;-67
2023/12/01 12:42:02;;;;;;;10.95;5.47;;;;;;;;;;5003234;28;20048;-67
2023/12/01 12:44:48;;;;;;;9.48;4.85;;;;;;;;;;5009386;28;20018;-67
2023/12/01 12:47:33;;;;;;;11.18;6.15;;;;;;;;;;5013807;28;20034;-67
2023/12/01 12:50:19;;;;;;;8.40;4.15;;;;;;;;;;5013206;28;20101;-67
2023/12/01 12:53:05;;;;;;;13.35;5.68;;;;;;;;;;5013522;28;20022;-67
2023/12/01 12:55:50;;;;;;;9.70;4.28;;;;;;;;;;5011394;28;20057;-67
2023/12/01 12:58:36;;;;;;;10.50;4.72;;;;;;;;;;5009156;28;20022;-67
2023/12/01 13:01:23;;;;;;;9.40;5.10;;;;;;;;;;5006440;28;20026;-67
2023/12/01 13:04:08;;;;;;;6.50;4.25;;;;;;;;;;5003873;28;20527;-67
2023/12/01 13:06:56;;;;;;;7.50;4.65;;;;;;;;;;4996282;28;20093;-67
2023/12/01 13:09:42;;;;;;;12.40;5.55;;;;;;;;;;5007517;28;20053;-67
2023/12/01 13:12:28;;;;;;;8.27;5.03;;;;;;;;;;5013520;28;20115;-67
2023/12/01 13:15:13;;;;;;;9.43;5.10;;;;;;;;;;5013117;28;20040;-67
2023/12/01 13:17:59;;;;;;;9.60;5.53;;;;;;;;;;5013255;28;20024;-67
2023/12/01 13:20:45;;;;;;;6.85;4.65;;;;;;;;;;5014006;28;20491;-67
2023/12/01 13:23:30;;;;;;;10.73;5.28;;;;;;;;;;5013127;28;20026;-67
2023/12/01 13:26:16;;;;;;;8.80;5.45;;;;;;;;;;5008431;28;20026;-66
2023/12/01 13:29:02;;;;;;;8.57;4.60;;;;;;;;;;5007641;28;20022;-67
2023/12/01 13:31:48;;;;;;;11.80;5.15;;;;;;;;;;5012680;28;20457;-67
2023/12/01 13:34:33;;;;;;;10.38;4.32;;;;;;;;;;5013408;28;20101;-67
2023/12/01 13:37:19;;;;;;;10.90;4.95;;;;;;;;;;5013308;28;20033;-67
2023/12/01 13:40:08;;;;;;;8.73;5.28;;;;;;;;;;5012717;28;20030;-67
2023/12/01 13:42:56;;;;;;;13.23;6.18;;;;;;;;;;5005202;28;20030;-67
2023/12/01 13:45:42;;;;;;;10.43;5.25;;;;;;;;;;4992544;28;20480;-67
2023/12/01 13:48:28;;;;;;;8.98;4.65;;;;;;;;;;4998089;28;20046;-66
2023/12/01 13:51:13;;;;;;;8.75;3.88;;;;;;;;;;5014544;28;20026;-67
2023/12/01 13:53:59;;;;;;;10.48;4.55;;;;;;;;;;5008659;28;20550;-67
2023/12/01 13:56:45;;;;;;;11.95;3.70;;;;;;;;;;5000914;28;20521;-67
2023/12/01 13:59:30;;;;;;;10.30;5.50;;;;;;;;;;4992755;28;20085;-67
2023/12/01 14:02:17;;;;;;;11.68;5.97;;;;;;;;;;5009624;28;20021;-67
2023/12/01 14:05:05;;;;;;;12.48;5.00;;;;;;;;;;4997825;28;20100;-67
2023/12/01 14:07:51;;;;;;;9.13;5.13;;;;;;;;;;5002167;28;20030;-67
2023/12/01 14:10:37;;;;;;;12.18;6.38;;;;;;;;;;5012479;28;20033;-67
2023/12/01 14:13:23;;;;;;;14.55;6.22;;;;;;;;;;5012867;28;20018;-67
2023/12/01 14:16:09;;;;;;;8.80;5.38;;;;;;;;;;5013065;28;20085;-67
2023/12/01 14:18:55;;;;;;;11.52;4.97;;;;;;;;;;5012337;28;20022;-67
2023/12/01 14:21:40;;;;;;;12.77;5.13;;;;;;;;;;5013125;28;20026;-67
2023/12/01 14:24:27;;;;;;;11.25;5.32;;;;;;;;;;4998048;28;20076;-67
2023/12/01 14:27:13;;;;;;;10.52;4.20;;;;;;;;;;5012029;28;20022;-67
2023/12/01 14:29:59;;;;;;;11.27;5.95;;;;;;;;;;5012138;28;20022;-67
2023/12/01 14:32:45;;;;;;;8.85;4.93;;;;;;;;;;5013076;28;20038;-67
2023/12/01 14:35:30;;;;;;;11.98;5.80;;;;;;;;;;5013633;28;20021;-67
2023/12/01 14:38:16;;;;;;;9.55;5.72;;;;;;;;;;5012669;28;20498;-67
2023/12/01 14:41:01;;;;;;;12.07;6.25;;;;;;;;;;4998803;28;20485;-67
2023/12/01 14:43:47;;;;;;;11.30;5.00;;;;;;;;;;5012312;28;20029;-67
2023/12/01 14:46:33;;;;;;;16.42;8.48;;;;;;;;;;5013216;28;20064;-67
2023/12/01 14:49:18;;;;;;;12.20;6.35;;;;;;;;;;5009571;28;20033;-67
2023/12/01 14:52:04;;;;;;;22.35;11.82;;;;;;;;;;5011473;28;20507;-67
2023/12/01 14:54:50;;;;;;;54.10;19.08;;;;;;;;;;5014388;28;20030;-67
2023/12/01 14:57:36;;;;;;;32.88;14.05;;;;;;;;;;5003768;28;20037;-67
2023/12/01 15:00:22;;;;;;;19.35;10.02;;;;;;;;;;4995976;28;20018;-67
2023/12/01 15:03:08;;;;;;;22.90;12.68;;;;;;;;;;5001599;28;20530;-67
2023/12/01 15:05:53;;;;;;;21.63;9.50;;;;;;;;;;5015404;28;20042;-67
2023/12/01 15:08:39;;;;;;;19.90;10.10;;;;;;;;;;5015870;28;20021;-67
2023/12/01 15:11:24;;;;;;;17.15;8.75;;;;;;;;;;5014743;28;20442;-66
2023/12/01 15:14:10;;;;;;;13.38;7.65;;;;;;;;;;4999351;28;20062;-67
2023/12/01 15:16:56;;;;;;;19.65;8.85;;;;;;;;;;4982682;28;20022;-66
2023/12/01 15:19:42;;;;;;;16.42;6.47;;;;;;;;;;5009211;28;20018;-66
2023/12/01 15:22:27;;;;;;;18.75;8.60;;;;;;;;;;5015626;28;20022;-67
2023/12/01 15:25:15;;;;;;;22.52;10.68;;;;;;;;;;5012337;28;20484;-67
2023/12/01 15:28:01;;;;;;;21.38;10.38;;;;;;;;;;5011721;28;20038;-67
2023/12/01 15:30:46;;;;;;;25.27;10.93;;;;;;;;;;4995230;28;20023;-67
2023/12/01 15:33:32;;;;;;;30.50;14.52;;;;;;;;;;4994219;28;20026;-67
2023/12/01 15:36:18;;;;;;;18.70;10.68;;;;;;;;;;4982881;28;20065;-67
2023/12/01 15:39:03;;;;;;;14.98;7.07;;;;;;;;;;4996370;28;20396;-67
2023/12/01 15:41:49;;;;;;;18.13;10.93;;;;;;;;;;5005987;28;20030;-67
2023/12/01 15:44:36;;;;;;;19.85;9.73;;;;;;;;;;5014064;28;20041;-67
2023/12/01 15:47:21;;;;;;;23.65;10.85;;;;;;;;;;4988043;28;20050;-66
2023/12/01 15:50:07;;;;;;;18.75;8.93;;;;;;;;;;4996182;28;20033;-67
2023/12/01 15:52:56;;;;;;;18.05;9.48;;;;;;;;;;5009145;28;20034;-67
2023/12/01 15:55:41;;;;;;;21.83;10.48;;;;;;;;;;5013545;28;20042;-66
2023/12/01 15:58:27;;;;;;;60.15;24.85;;;;;;;;;;5009491;28;20030;-67
2023/12/01 16:01:13;;;;;;;52.58;21.23;;;;;;;;;;5015675;28;20025;-67
2023/12/01 16:03:58;;;;;;;39.55;15.10;;;;;;;;;;5013796;28;20034;-67
2023/12/01 16:06:44;;;;;;;38.95;17.85;;;;;;;;;;4998604;28;20058;-67
2023/12/01 16:09:30;;;;;;;36.58;14.93;;;;;;;;;;4993356;28;20018;-67
2023/12/01 16:12:16;;;;;;;33.70;15.90;;;;;;;;;;5012448;28;20112;-67
2023/12/01 16:15:04;;;;;;;48.50;17.40;;;;;;;;;;5003162;28;20038;-67
2023/12/01 16:17:49;;;;;;;65.35;21.02;;;;;;;;;;4980483;28;20030;-67
2023/12/01 16:20:35;;;;;;;59.85;22.65;;;;;;;;;;5007720;28;20021;-67
2023/12/01 16:23:21;;;;;;;34.35;13.98;;;;;;;;;;5014154;28;20033;-67
2023/12/01 16:26:11;;;;;;;34.63;13.63;;;;;;;;;;4997531;28;20450;-67
2023/12/01 16:28:57;;;;;;;23.15;11.40;;;;;;;;;;4999331;28;20030;-67
2023/12/01 16:31:43;;;;;;;30.25;14.55;;;;;;;;;;5013603;28;20411;-67